createdAt,value
2023-02-14T00:00:52.150Z,1025.73
2023-02-14T00:03:25.097Z,1025.73
2023-02-14T00:05:58.177Z,1025.72
2023-02-14T00:08:31.141Z,1025.70
2023-02-14T00:11:04.012Z,1025.68
2023-02-14T00:13:36.978Z,1025.67
2023-02-14T00:16:10.159Z,1025.66
2023-02-14T00:18:43.074Z,1025.65
2023-02-14T00:21:16.241Z,1025.67
2023-02-14T00:23:49.296Z,1025.68
2023-02-14T00:26:22.167Z,1025.68
2023-02-14T00:28:54.979Z,1025.68
2023-02-14T00:31:28.510Z,1025.68
2023-02-14T00:34:01.350Z,1025.68
2023-02-14T00:36:34.242Z,1025.69
2023-02-14T00:39:07.379Z,1025.69
2023-02-14T00:41:40.027Z,1025.70
2023-02-14T00:44:13.318Z,1025.70
2023-02-14T00:46:46.164Z,1025.71
2023-02-14T00:49:19.183Z,1025.69
2023-02-14T00:51:52.354Z,1025.69
2023-02-14T00:54:25.439Z,1025.70
2023-02-14T00:56:58.373Z,1025.71
2023-02-14T00:59:31.039Z,1025.70
2023-02-14T01:02:04.045Z,1025.69
2023-02-14T01:04:37.162Z,1025.69
2023-02-14T01:07:10.298Z,1025.69
2023-02-14T01:09:43.177Z,1025.70
2023-02-14T01:12:16.342Z,1025.69
2023-02-14T01:14:49.392Z,1025.68
2023-02-14T01:17:22.076Z,1025.66
2023-02-14T01:19:55.290Z,1025.67
2023-02-14T01:22:28.528Z,1025.67
2023-02-14T01:25:02.339Z,1025.67
2023-02-14T01:27:35.088Z,1025.67
2023-02-14T01:30:08.205Z,1025.67
2023-02-14T01:32:41.287Z,1025.67
2023-02-14T01:35:14.302Z,1025.65
2023-02-14T01:37:47.238Z,1025.64
2023-02-14T01:40:20.227Z,1025.64
2023-02-14T01:42:53.257Z,1025.64
2023-02-14T01:45:26.157Z,1025.62
2023-02-14T01:47:59.427Z,1025.61
2023-02-14T01:50:32.214Z,1025.62
2023-02-14T01:53:05.283Z,1025.62
2023-02-14T01:55:38.248Z,1025.63
2023-02-14T01:58:11.314Z,1025.63
2023-02-14T02:00:44.348Z,1025.64
2023-02-14T02:03:17.474Z,1025.67
2023-02-14T02:05:50.196Z,1025.71
2023-02-14T02:08:23.237Z,1025.74
2023-02-14T02:10:56.224Z,1025.76
2023-02-14T02:13:29.628Z,1025.79
2023-02-14T02:16:03.507Z,1025.81
2023-02-14T02:18:36.305Z,1025.82
2023-02-14T02:21:09.179Z,1025.84
2023-02-14T02:23:42.464Z,1025.85
2023-02-14T02:26:15.473Z,1025.84
2023-02-14T02:28:48.577Z,1025.83
2023-02-14T02:31:21.349Z,1025.80
2023-02-14T02:33:54.290Z,1025.79
2023-02-14T02:36:27.192Z,1025.78
2023-02-14T02:39:00.607Z,1025.76
2023-02-14T02:41:33.343Z,1025.74
2023-02-14T02:44:06.462Z,1025.71
2023-02-14T02:46:39.748Z,1025.68
2023-02-14T02:49:13.214Z,1025.68
2023-02-14T02:51:46.712Z,1025.67
2023-02-14T02:54:20.323Z,1025.66
2023-02-14T02:56:53.648Z,1025.65
2023-02-14T02:59:26.357Z,1025.64
2023-02-14T03:01:59.424Z,1025.64
2023-02-14T03:04:33.805Z,1025.62
2023-02-14T03:07:07.506Z,1025.62
2023-02-14T03:09:40.352Z,1025.60
2023-02-14T03:12:13.545Z,1025.60
2023-02-14T03:14:46.629Z,1025.61
2023-02-14T03:17:19.478Z,1025.62
2023-02-14T03:19:52.393Z,1025.63
2023-02-14T03:22:25.269Z,1025.63
2023-02-14T03:24:58.439Z,1025.63
2023-02-14T03:27:31.540Z,1025.64
2023-02-14T03:30:04.410Z,1025.65
2023-02-14T03:32:37.772Z,1025.64
2023-02-14T03:35:11.262Z,1025.66
2023-02-14T03:37:44.637Z,1025.66
2023-02-14T03:40:17.278Z,1025.66
2023-02-14T03:42:50.679Z,1025.65
2023-02-14T03:45:23.918Z,1025.66
2023-02-14T03:47:57.308Z,1025.66
2023-02-14T03:50:30.457Z,1025.67
2023-02-14T03:53:03.567Z,1025.66
2023-02-14T03:55:36.376Z,1025.66
2023-02-14T03:58:09.599Z,1025.66
2023-02-14T04:00:42.667Z,1025.67
2023-02-14T04:03:15.437Z,1025.67
2023-02-14T04:05:48.669Z,1025.68
2023-02-14T04:08:21.441Z,1025.68
2023-02-14T04:10:54.670Z,1025.68
2023-02-14T04:13:27.379Z,1025.70
2023-02-14T04:16:00.695Z,1025.72
2023-02-14T04:18:47.567Z,1025.75
2023-02-14T04:21:20.484Z,1025.77
2023-02-14T04:23:53.604Z,1025.79
2023-02-14T04:26:26.689Z,1025.81
2023-02-14T04:28:59.881Z,1025.85
2023-02-14T04:31:32.954Z,1025.89
2023-02-14T04:34:05.643Z,1025.89
2023-02-14T04:36:38.595Z,1025.91
2023-02-14T04:39:11.686Z,1025.93
2023-02-14T04:41:44.483Z,1025.94
2023-02-14T04:44:17.726Z,1025.94
2023-02-14T04:46:50.733Z,1025.94
2023-02-14T04:49:23.748Z,1025.92
2023-02-14T04:51:56.384Z,1025.91
2023-02-14T04:54:29.551Z,1025.91
2023-02-14T04:57:02.417Z,1025.88
2023-02-14T04:59:35.802Z,1025.87
2023-02-14T05:02:08.568Z,1025.88
2023-02-14T05:04:41.652Z,1025.89
2023-02-14T05:07:14.394Z,1025.88
2023-02-14T05:09:47.576Z,1025.87
2023-02-14T05:12:20.443Z,1025.86
2023-02-14T05:14:53.463Z,1025.84
2023-02-14T05:17:26.428Z,1025.83
2023-02-14T05:19:59.620Z,1025.81
2023-02-14T05:22:32.417Z,1025.80
2023-02-14T05:25:05.445Z,1025.80
2023-02-14T05:27:38.436Z,1025.80
2023-02-14T05:30:11.528Z,1025.80
2023-02-14T05:32:44.678Z,1025.81
2023-02-14T05:35:17.837Z,1025.81
2023-02-14T05:37:50.724Z,1025.80
2023-02-14T05:42:56.448Z,1025.78
2023-02-14T05:45:29.576Z,1025.78
2023-02-14T05:48:02.884Z,1025.77
2023-02-14T05:50:35.468Z,1025.77
2023-02-14T05:53:08.458Z,1025.76
2023-02-14T05:55:41.640Z,1025.75
2023-02-14T05:58:14.502Z,1025.75
2023-02-14T06:00:47.646Z,1025.75
2023-02-14T06:03:20.781Z,1025.76
2023-02-14T06:05:53.499Z,1025.77
2023-02-14T06:08:26.599Z,1025.79
2023-02-14T06:11:00.205Z,1025.81
2023-02-14T06:13:32.644Z,1025.84
2023-02-14T06:16:05.553Z,1025.85
2023-02-14T06:18:38.540Z,1025.87
2023-02-14T06:21:11.650Z,1025.87
2023-02-14T06:23:44.544Z,1025.90
2023-02-14T06:26:23.747Z,1025.91
2023-02-14T06:28:56.684Z,1025.92
2023-02-14T06:31:29.971Z,1025.94
2023-02-14T06:34:02.690Z,1025.96
2023-02-14T06:36:35.968Z,1025.98
2023-02-14T06:39:08.863Z,1026.00
2023-02-14T06:41:41.664Z,1026.00
2023-02-14T06:44:14.597Z,1026.00
2023-02-14T06:46:47.703Z,1026.01
2023-02-14T06:49:20.674Z,1026.02
2023-02-14T06:51:53.667Z,1026.04
2023-02-14T06:54:26.569Z,1026.06
2023-02-14T06:56:59.667Z,1026.08
2023-02-14T06:59:32.844Z,1026.10
2023-02-14T07:02:05.667Z,1026.12
2023-02-14T07:04:38.716Z,1026.13
2023-02-14T07:07:11.901Z,1026.16
2023-02-14T07:09:46.706Z,1026.17
2023-02-14T07:12:19.836Z,1026.19
2023-02-14T07:14:52.737Z,1026.19
2023-02-14T07:17:26.007Z,1026.20
2023-02-14T07:19:58.879Z,1026.20
2023-02-14T07:22:31.736Z,1026.21
2023-02-14T07:25:04.802Z,1026.21
2023-02-14T07:27:37.614Z,1026.23
2023-02-14T07:30:10.708Z,1026.23
2023-02-14T07:32:43.997Z,1026.25
2023-02-14T07:35:16.936Z,1026.25
2023-02-14T07:37:49.775Z,1026.25
2023-02-14T07:40:22.767Z,1026.24
2023-02-14T07:42:55.645Z,1026.24
2023-02-14T07:45:28.663Z,1026.24
2023-02-14T07:48:02.131Z,1026.22
2023-02-14T07:50:34.818Z,1026.22
2023-02-14T07:53:07.662Z,1026.21
2023-02-14T07:55:40.945Z,1026.20
2023-02-14T07:58:13.788Z,1026.19
2023-02-14T08:00:46.962Z,1026.20
2023-02-14T08:03:20.005Z,1026.19
2023-02-14T08:05:53.086Z,1026.19
2023-02-14T08:08:26.024Z,1026.18
2023-02-14T08:10:59.458Z,1026.16
2023-02-14T08:13:32.024Z,1026.16
2023-02-14T08:16:04.962Z,1026.14
2023-02-14T08:18:37.721Z,1026.13
2023-02-14T08:21:10.869Z,1026.14
2023-02-14T08:23:45.601Z,1026.15
2023-02-14T08:26:16.744Z,1026.15
2023-02-14T08:28:49.805Z,1026.15
2023-02-14T08:31:35.692Z,1026.15
2023-02-14T08:34:02.118Z,1026.14
2023-02-14T08:36:34.974Z,1026.14
2023-02-14T08:39:08.056Z,1026.15
2023-02-14T08:41:41.248Z,1026.16
2023-02-14T08:44:14.784Z,1026.16
2023-02-14T08:46:48.214Z,1026.17
2023-02-14T08:49:21.193Z,1026.18
2023-02-14T08:51:54.108Z,1026.19
2023-02-14T08:54:26.922Z,1026.20
2023-02-14T08:57:00.085Z,1026.22
2023-02-14T08:59:33.161Z,1026.22
2023-02-14T09:02:05.937Z,1026.22
2023-02-14T09:04:39.366Z,1026.22
2023-02-14T09:07:12.167Z,1026.23
2023-02-14T09:09:45.319Z,1026.22
2023-02-14T09:12:19.116Z,1026.22
2023-02-14T09:14:52.321Z,1026.20
2023-02-14T09:17:26.125Z,1026.20
2023-02-14T09:19:59.223Z,1026.20
2023-02-14T09:22:31.933Z,1026.19
2023-02-14T09:25:05.123Z,1026.17
2023-02-14T09:27:37.813Z,1026.16
2023-02-14T09:30:11.254Z,1026.16
2023-02-14T09:32:44.150Z,1026.15
2023-02-14T09:35:17.351Z,1026.15
2023-02-14T09:37:51.190Z,1026.13
2023-02-14T09:40:24.258Z,1026.12
2023-02-14T09:42:57.267Z,1026.10
2023-02-14T09:45:31.226Z,1026.10
2023-02-14T09:48:04.426Z,1026.09
2023-02-14T09:50:38.237Z,1026.07
2023-02-14T09:53:11.153Z,1026.06
2023-02-14T09:55:43.936Z,1026.06
2023-02-14T09:58:17.258Z,1026.04
2023-02-14T10:00:50.044Z,1026.04
2023-02-14T10:03:23.014Z,1026.05
2023-02-14T10:05:56.068Z,1026.05
2023-02-14T10:08:29.224Z,1026.04
2023-02-14T10:11:16.153Z,1026.02
2023-02-14T10:13:49.019Z,1026.02
2023-02-14T10:16:22.413Z,1026.04
2023-02-14T10:18:55.124Z,1026.05
2023-02-14T10:21:28.279Z,1026.05
2023-02-14T10:24:01.133Z,1026.05
2023-02-14T10:26:34.212Z,1026.04
2023-02-14T10:29:07.337Z,1026.03
2023-02-14T10:31:40.556Z,1026.03
2023-02-14T10:34:14.236Z,1026.03
2023-02-14T10:36:47.448Z,1026.02
2023-02-14T10:39:21.202Z,1025.99
2023-02-14T10:41:54.246Z,1025.95
2023-02-14T10:44:27.075Z,1025.93
2023-02-14T10:47:00.365Z,1025.91
2023-02-14T10:49:34.062Z,1025.90
2023-02-14T10:52:07.193Z,1025.86
2023-02-14T10:54:40.285Z,1025.84
2023-02-14T10:57:18.967Z,1025.83
2023-02-14T10:59:51.408Z,1025.81
2023-02-14T11:02:25.233Z,1025.79
2023-02-14T11:04:58.081Z,1025.77
2023-02-14T11:07:31.270Z,1025.75
2023-02-14T11:10:04.552Z,1025.72
2023-02-14T11:12:38.325Z,1025.68
2023-02-14T11:15:11.346Z,1025.65
2023-02-14T11:17:44.448Z,1025.63
2023-02-14T11:20:18.243Z,1025.62
2023-02-14T11:22:51.545Z,1025.60
2023-02-14T11:25:25.237Z,1025.57
2023-02-14T11:27:58.485Z,1025.56
2023-02-14T11:30:32.550Z,1025.54
2023-02-14T11:33:05.332Z,1025.52
2023-02-14T11:35:38.346Z,1025.49
2023-02-14T11:38:11.353Z,1025.46
2023-02-14T11:40:44.405Z,1025.44
2023-02-14T11:43:17.014Z,1025.42
2023-02-14T11:45:50.491Z,1025.39
2023-02-14T11:48:39.467Z,1025.38
2023-02-14T11:50:56.346Z,1025.36
2023-02-14T11:53:29.403Z,1025.34
2023-02-14T11:56:02.294Z,1025.31
2023-02-14T11:58:35.392Z,1025.29
2023-02-14T12:01:08.451Z,1025.26
2023-02-14T12:03:41.319Z,1025.22
2023-02-14T12:06:14.273Z,1025.18
2023-02-14T12:08:47.321Z,1025.14
2023-02-14T12:11:20.361Z,1025.12
2023-02-14T12:13:53.399Z,1025.08
2023-02-14T12:16:28.259Z,1025.04
2023-02-14T12:18:59.537Z,1025.00
2023-02-14T12:21:33.180Z,1024.96
2023-02-14T12:24:06.201Z,1024.94
2023-02-14T12:26:39.479Z,1024.89
2023-02-14T12:29:12.323Z,1024.87
2023-02-14T12:31:45.400Z,1024.86
2023-02-14T12:34:18.249Z,1024.84
2023-02-14T12:36:51.439Z,1024.81
2023-02-14T12:39:24.301Z,1024.79
2023-02-14T12:41:57.514Z,1024.77
2023-02-14T12:44:30.255Z,1024.73
2023-02-14T12:47:03.640Z,1024.71
2023-02-14T12:49:37.367Z,1024.67
2023-02-14T12:52:10.532Z,1024.65
2023-02-14T12:54:43.424Z,1024.63
2023-02-14T12:57:16.499Z,1024.60
2023-02-14T12:59:49.619Z,1024.59
2023-02-14T13:02:23.674Z,1024.56
2023-02-14T13:04:57.345Z,1024.54
2023-02-14T13:07:30.630Z,1024.53
2023-02-14T13:10:04.520Z,1024.51
2023-02-14T13:12:37.502Z,1024.48
2023-02-14T13:15:10.455Z,1024.44
2023-02-14T13:17:43.451Z,1024.42
2023-02-14T13:20:16.445Z,1024.38
2023-02-14T13:22:49.671Z,1024.35
2023-02-14T13:25:23.316Z,1024.32
2023-02-14T13:27:56.510Z,1024.28
2023-02-14T13:30:29.554Z,1024.25
2023-02-14T13:33:02.601Z,1024.23
2023-02-14T13:35:35.578Z,1024.21
2023-02-14T13:38:08.666Z,1024.19
2023-02-14T13:40:42.517Z,1024.17
2023-02-14T13:43:15.468Z,1024.15
2023-02-14T13:45:48.679Z,1024.14
2023-02-14T13:48:22.518Z,1024.12
2023-02-14T13:50:55.476Z,1024.10
2023-02-14T13:53:28.381Z,1024.10
2023-02-14T13:56:01.724Z,1024.09
2023-02-14T13:58:34.555Z,1024.06
2023-02-14T14:01:07.405Z,1024.06
2023-02-14T14:03:40.560Z,1024.05
2023-02-14T14:06:13.241Z,1024.03
2023-02-14T14:08:46.512Z,1024.01
2023-02-14T14:11:19.597Z,1024.00
2023-02-14T14:13:52.562Z,1023.99
2023-02-14T14:16:25.698Z,1023.97
2023-02-14T14:18:58.689Z,1023.96
2023-02-14T14:21:31.580Z,1023.92
2023-02-14T14:24:04.352Z,1023.90
2023-02-14T14:26:37.637Z,1023.88
2023-02-14T14:29:10.655Z,1023.86
2023-02-14T14:31:43.688Z,1023.83
2023-02-14T14:34:16.533Z,1023.82
2023-02-14T14:36:49.640Z,1023.79
2023-02-14T14:39:22.827Z,1023.77
2023-02-14T14:41:56.671Z,1023.74
2023-02-14T14:44:29.636Z,1023.72
2023-02-14T14:47:02.608Z,1023.70
2023-02-14T14:49:35.654Z,1023.68
2023-02-14T14:52:08.303Z,1023.66
2023-02-14T14:54:41.492Z,1023.65
2023-02-14T14:57:14.631Z,1023.65
2023-02-14T14:59:47.582Z,1023.63
2023-02-14T15:02:20.710Z,1023.63
2023-02-14T15:04:53.721Z,1023.63
2023-02-14T15:07:26.735Z,1023.61
2023-02-14T15:09:59.822Z,1023.59
2023-02-14T15:12:33.617Z,1023.57
2023-02-14T15:15:06.738Z,1023.53
2023-02-14T15:17:39.614Z,1023.50
2023-02-14T15:20:12.698Z,1023.49
2023-02-14T15:22:45.881Z,1023.47
2023-02-14T15:25:19.565Z,1023.46
2023-02-14T15:27:52.816Z,1023.44
2023-02-14T15:30:26.757Z,1023.42
2023-02-14T15:32:59.350Z,1023.41
2023-02-14T15:35:32.831Z,1023.40
2023-02-14T15:38:06.458Z,1023.37
2023-02-14T15:40:39.597Z,1023.36
2023-02-14T15:43:12.354Z,1023.36
2023-02-14T15:45:45.597Z,1023.35
2023-02-14T15:48:24.559Z,1023.35
2023-02-14T15:50:57.434Z,1023.35
2023-02-14T15:53:30.556Z,1023.35
2023-02-14T15:56:03.757Z,1023.34
2023-02-14T15:58:36.712Z,1023.33
2023-02-14T16:01:09.483Z,1023.32
2023-02-14T16:03:42.538Z,1023.31
2023-02-14T16:06:15.701Z,1023.29
2023-02-14T16:08:48.423Z,1023.27
2023-02-14T16:11:21.854Z,1023.24
2023-02-14T16:13:55.431Z,1023.23
2023-02-14T16:16:28.426Z,1023.21
2023-02-14T16:19:01.430Z,1023.21
2023-02-14T16:21:34.798Z,1023.21
2023-02-14T16:24:07.581Z,1023.22
2023-02-14T16:26:40.590Z,1023.22
2023-02-14T16:29:13.441Z,1023.22
2023-02-14T16:32:06.174Z,1023.23
2023-02-14T16:34:19.462Z,1023.24
2023-02-14T16:36:52.524Z,1023.24
2023-02-14T16:39:25.597Z,1023.23
2023-02-14T16:41:58.676Z,1023.24
2023-02-14T16:44:31.461Z,1023.23
2023-02-14T16:47:04.460Z,1023.24
2023-02-14T16:49:38.002Z,1023.24
2023-02-14T16:52:11.781Z,1023.24
2023-02-14T16:54:44.711Z,1023.24
2023-02-14T16:57:17.601Z,1023.24
2023-02-14T16:59:50.500Z,1023.25
2023-02-14T17:02:23.724Z,1023.27
2023-02-14T17:04:56.527Z,1023.29
2023-02-14T17:07:29.938Z,1023.31
2023-02-14T17:10:02.597Z,1023.34
2023-02-14T17:12:35.524Z,1023.36
2023-02-14T17:15:08.774Z,1023.40
2023-02-14T17:17:41.748Z,1023.43
2023-02-14T17:20:14.561Z,1023.45
2023-02-14T17:22:47.794Z,1023.47
2023-02-14T17:25:20.708Z,1023.48
2023-02-14T17:27:53.559Z,1023.49
2023-02-14T17:30:26.747Z,1023.50
2023-02-14T17:33:01.499Z,1023.50
2023-02-14T17:35:36.485Z,1023.49
2023-02-14T17:38:09.585Z,1023.49
2023-02-14T17:40:43.045Z,1023.50
2023-02-14T17:43:16.694Z,1023.51
2023-02-14T17:45:49.919Z,1023.52
2023-02-14T17:48:22.735Z,1023.51
2023-02-14T17:50:55.580Z,1023.52
2023-02-14T17:53:28.753Z,1023.53
2023-02-14T17:56:01.766Z,1023.52
2023-02-14T17:58:34.691Z,1023.50
2023-02-14T18:01:07.778Z,1023.48
2023-02-14T18:03:42.701Z,1023.46
2023-02-14T18:06:15.569Z,1023.44
2023-02-14T18:08:48.888Z,1023.42
2023-02-14T18:11:21.772Z,1023.40
2023-02-14T18:13:55.149Z,1023.39
2023-02-14T18:16:29.045Z,1023.38
2023-02-14T18:19:01.860Z,1023.37
2023-02-14T18:21:34.946Z,1023.35
2023-02-14T18:24:07.963Z,1023.35
2023-02-14T18:26:41.001Z,1023.35
2023-02-14T18:29:13.877Z,1023.34
2023-02-14T18:31:47.030Z,1023.32
2023-02-14T18:34:19.790Z,1023.30
2023-02-14T18:36:52.632Z,1023.27
2023-02-14T18:39:25.771Z,1023.24
2023-02-14T18:41:58.636Z,1023.22
2023-02-14T18:44:31.845Z,1023.18
2023-02-14T18:47:04.854Z,1023.15
2023-02-14T18:49:51.626Z,1023.12
2023-02-14T18:52:24.810Z,1023.10
2023-02-14T18:54:57.696Z,1023.08
2023-02-14T18:57:30.743Z,1023.06
2023-02-14T19:00:03.746Z,1023.02
2023-02-14T19:02:36.805Z,1023.00
2023-02-14T19:05:09.771Z,1022.99
2023-02-14T19:07:42.694Z,1022.99
2023-02-14T19:10:15.713Z,1022.97
2023-02-14T19:12:49.047Z,1022.96
2023-02-14T19:15:21.963Z,1022.94
2023-02-14T19:17:54.683Z,1022.92
2023-02-14T19:20:27.855Z,1022.91
2023-02-14T19:23:00.701Z,1022.90
2023-02-14T19:25:33.974Z,1022.88
2023-02-14T19:28:06.861Z,1022.87
2023-02-14T19:30:39.876Z,1022.86
2023-02-14T19:33:12.745Z,1022.85
2023-02-14T19:35:46.123Z,1022.84
2023-02-14T19:38:18.927Z,1022.83
2023-02-14T19:40:52.788Z,1022.81
2023-02-14T19:43:25.968Z,1022.77
2023-02-14T19:45:58.810Z,1022.75
2023-02-14T19:48:31.925Z,1022.74
2023-02-14T19:51:05.022Z,1022.73
2023-02-14T19:53:37.920Z,1022.72
2023-02-14T19:56:11.039Z,1022.70
2023-02-14T19:58:44.021Z,1022.69
2023-02-14T20:01:16.791Z,1022.68
2023-02-14T20:03:49.988Z,1022.65
2023-02-14T20:06:22.897Z,1022.65
2023-02-14T20:08:55.829Z,1022.64
2023-02-14T20:11:28.946Z,1022.63
2023-02-14T20:14:01.820Z,1022.61
2023-02-14T20:16:35.019Z,1022.59
2023-02-14T20:19:08.282Z,1022.58
2023-02-14T20:21:42.145Z,1022.55
2023-02-14T20:24:15.103Z,1022.52
2023-02-14T20:26:48.195Z,1022.50
2023-02-14T20:29:20.908Z,1022.47
2023-02-14T20:31:54.192Z,1022.43
2023-02-14T20:34:27.166Z,1022.43
2023-02-14T20:37:00.119Z,1022.41
2023-02-14T20:39:32.988Z,1022.42
2023-02-14T20:42:06.124Z,1022.40
2023-02-14T20:44:39.161Z,1022.37
2023-02-14T20:47:12.144Z,1022.36
2023-02-14T20:49:45.162Z,1022.34
2023-02-14T20:52:18.158Z,1022.33
2023-02-14T20:54:51.195Z,1022.30
2023-02-14T20:57:24.207Z,1022.28
2023-02-14T20:59:56.994Z,1022.26
2023-02-14T21:02:30.174Z,1022.24
2023-02-14T21:05:03.250Z,1022.22
2023-02-14T21:07:35.866Z,1022.20
2023-02-14T21:10:09.241Z,1022.16
2023-02-14T21:12:45.287Z,1022.12
2023-02-14T21:15:17.856Z,1022.10
2023-02-14T21:17:51.251Z,1022.06
2023-02-14T21:20:24.408Z,1022.04
2023-02-14T21:22:58.243Z,1022.04
2023-02-14T21:25:31.219Z,1022.04
2023-02-14T21:28:04.233Z,1022.02
2023-02-14T21:30:37.186Z,1022.00
2023-02-14T21:33:09.915Z,1022.01
2023-02-14T21:35:43.271Z,1022.00
2023-02-14T21:38:16.296Z,1021.98
2023-02-14T21:40:49.239Z,1021.97
2023-02-14T21:43:22.280Z,1021.96
2023-02-14T21:45:55.329Z,1021.95
2023-02-14T21:48:28.183Z,1021.93
2023-02-14T21:51:01.236Z,1021.92
2023-02-14T21:53:34.207Z,1021.91
2023-02-14T21:56:07.057Z,1021.90
2023-02-14T21:58:40.154Z,1021.88
2023-02-14T22:01:12.999Z,1021.86
2023-02-14T22:03:46.069Z,1021.84
2023-02-14T22:06:19.014Z,1021.83
2023-02-14T22:08:52.268Z,1021.81
2023-02-14T22:14:03.354Z,1021.77
2023-02-14T22:16:36.166Z,1021.76
2023-02-14T22:19:09.292Z,1021.75
2023-02-14T22:21:42.279Z,1021.73
2023-02-14T22:24:15.260Z,1021.70
2023-02-14T22:26:48.094Z,1021.71
2023-02-14T22:29:21.399Z,1021.69
2023-02-14T22:31:54.491Z,1021.68
2023-02-14T22:34:26.987Z,1021.67
2023-02-14T22:37:00.127Z,1021.67
2023-02-14T22:39:33.440Z,1021.68
2023-02-14T22:42:06.253Z,1021.68
2023-02-14T22:44:39.447Z,1021.68
2023-02-14T22:47:12.116Z,1021.67
2023-02-14T22:49:45.391Z,1021.66
2023-02-14T22:52:18.043Z,1021.66
2023-02-14T22:54:51.509Z,1021.64
2023-02-14T22:57:25.413Z,1021.62
2023-02-14T22:59:58.585Z,1021.62
2023-02-14T23:02:32.090Z,1021.60
2023-02-14T23:05:05.335Z,1021.58
2023-02-14T23:07:38.255Z,1021.57
2023-02-14T23:10:11.384Z,1021.55
2023-02-14T23:12:44.160Z,1021.55
2023-02-14T23:15:17.324Z,1021.55
2023-02-14T23:17:50.187Z,1021.56
2023-02-14T23:20:23.479Z,1021.56
2023-02-14T23:22:56.429Z,1021.56
2023-02-14T23:25:29.418Z,1021.57
2023-02-14T23:28:02.315Z,1021.57
2023-02-14T23:30:35.240Z,1021.57
2023-02-14T23:33:08.069Z,1021.58
2023-02-14T23:35:41.398Z,1021.58
2023-02-14T23:38:14.431Z,1021.56
2023-02-14T23:40:47.447Z,1021.57
2023-02-14T23:43:20.479Z,1021.56
2023-02-14T23:45:53.526Z,1021.55
2023-02-14T23:48:26.205Z,1021.53
2023-02-14T23:50:59.116Z,1021.53
2023-02-14T23:53:32.565Z,1021.52
2023-02-14T23:56:06.501Z,1021.50
2023-02-14T23:58:39.958Z,1021.50
